sensor_id;sensor_type;location;lat;lon;timestamp;P1;durP1;ratioP1;P2;durP2;ratioP2
946;SDS011;460;48.734;9.152;2023-05-27T00:01:39;2.37;;;2.00;;
946;SDS011;460;48.734;9.152;2023-05-27T00:04:06;4.83;;;1.70;;
946;SDS011;460;48.734;9.152;2023-05-27T00:06:35;1.77;;;1.50;;
946;SDS011;460;48.734;9.152;2023-05-27T00:09:03;1.90;;;1.80;;
946;SDS011;460;48.734;9.152;2023-05-27T00:11:31;1.60;;;1.50;;
946;SDS011;460;48.734;9.152;2023-05-27T00:13:58;1.90;;;1.70;;
946;SDS011;460;48.734;9.152;2023-05-27T00:16:24;3.50;;;2.90;;
946;SDS011;460;48.734;9.152;2023-05-27T00:18:51;1.53;;;1.43;;
946;SDS011;460;48.734;9.152;2023-05-27T00:21:18;2.77;;;1.73;;
946;SDS011;460;48.734;9.152;2023-05-27T00:23:46;2.73;;;1.53;;
946;SDS011;460;48.734;9.152;2023-05-27T00:26:13;2.73;;;1.60;;
946;SDS011;460;48.734;9.152;2023-05-27T00:28:40;3.03;;;1.60;;
946;SDS011;460;48.734;9.152;2023-05-27T00:31:07;2.33;;;2.10;;
946;SDS011;460;48.734;9.152;2023-05-27T00:33:33;1.60;;;1.50;;
946;SDS011;460;48.734;9.152;2023-05-27T00:36:00;3.77;;;1.60;;
946;SDS011;460;48.734;9.152;2023-05-27T00:38:27;2.60;;;2.23;;
946;SDS011;460;48.734;9.152;2023-05-27T00:40:56;1.60;;;1.37;;
946;SDS011;460;48.734;9.152;2023-05-27T00:43:26;2.53;;;1.23;;
946;SDS011;460;48.734;9.152;2023-05-27T00:45:52;5.13;;;1.80;;
946;SDS011;460;48.734;9.152;2023-05-27T00:48:19;3.13;;;1.50;;
946;SDS011;460;48.734;9.152;2023-05-27T00:50:46;1.60;;;1.20;;
946;SDS011;460;48.734;9.152;2023-05-27T00:53:13;2.33;;;1.90;;
946;SDS011;460;48.734;9.152;2023-05-27T00:55:40;1.93;;;1.60;;
946;SDS011;460;48.734;9.152;2023-05-27T00:58:08;2.40;;;2.00;;
946;SDS011;460;48.734;9.152;2023-05-27T01:00:35;2.60;;;1.60;;
946;SDS011;460;48.734;9.152;2023-05-27T01:03:03;2.10;;;1.30;;
946;SDS011;460;48.734;9.152;2023-05-27T01:05:31;2.93;;;1.83;;
946;SDS011;460;48.734;9.152;2023-05-27T01:08:02;3.00;;;1.50;;
946;SDS011;460;48.734;9.152;2023-05-27T01:10:37;2.93;;;1.47;;
946;SDS011;460;48.734;9.152;2023-05-27T01:13:10;5.27;;;1.83;;
946;SDS011;460;48.734;9.152;2023-05-27T01:15:41;1.93;;;1.70;;
946;SDS011;460;48.734;9.152;2023-05-27T01:18:10;3.83;;;1.67;;
946;SDS011;460;48.734;9.152;2023-05-27T01:20:42;2.30;;;2.10;;
946;SDS011;460;48.734;9.152;2023-05-27T01:23:13;1.70;;;1.60;;
946;SDS011;460;48.734;9.152;2023-05-27T01:25:41;1.60;;;1.50;;
946;SDS011;460;48.734;9.152;2023-05-27T01:28:08;2.67;;;1.90;;
946;SDS011;460;48.734;9.152;2023-05-27T01:30:37;2.10;;;1.10;;
946;SDS011;460;48.734;9.152;2023-05-27T01:33:06;3.70;;;1.43;;
946;SDS011;460;48.734;9.152;2023-05-27T01:35:37;1.17;;;1.17;;
946;SDS011;460;48.734;9.152;2023-05-27T01:38:10;2.77;;;2.57;;
946;SDS011;460;48.734;9.152;2023-05-27T01:40:40;2.20;;;2.00;;
946;SDS011;460;48.734;9.152;2023-05-27T01:43:08;1.63;;;1.43;;
946;SDS011;460;48.734;9.152;2023-05-27T01:45:37;2.10;;;1.10;;
946;SDS011;460;48.734;9.152;2023-05-27T01:48:04;5.57;;;1.90;;
946;SDS011;460;48.734;9.152;2023-05-27T01:50:32;4.47;;;2.50;;
946;SDS011;460;48.734;9.152;2023-05-27T01:53:00;2.10;;;1.43;;
946;SDS011;460;48.734;9.152;2023-05-27T01:55:28;2.30;;;1.87;;
946;SDS011;460;48.734;9.152;2023-05-27T01:57:58;2.90;;;2.23;;
946;SDS011;460;48.734;9.152;2023-05-27T02:00:25;2.83;;;1.50;;
946;SDS011;460;48.734;9.152;2023-05-27T02:02:52;1.67;;;1.20;;
946;SDS011;460;48.734;9.152;2023-05-27T02:05:19;1.43;;;1.33;;
946;SDS011;460;48.734;9.152;2023-05-27T02:07:47;1.97;;;1.47;;
946;SDS011;460;48.734;9.152;2023-05-27T02:10:15;2.10;;;1.43;;
946;SDS011;460;48.734;9.152;2023-05-27T02:12:43;2.23;;;1.17;;
946;SDS011;460;48.734;9.152;2023-05-27T02:15:11;3.43;;;1.63;;
946;SDS011;460;48.734;9.152;2023-05-27T02:17:38;3.47;;;1.60;;
946;SDS011;460;48.734;9.152;2023-05-27T02:20:05;2.87;;;2.10;;
946;SDS011;460;48.734;9.152;2023-05-27T02:22:32;2.47;;;1.90;;
946;SDS011;460;48.734;9.152;2023-05-27T02:25:00;2.47;;;2.27;;
946;SDS011;460;48.734;9.152;2023-05-27T02:27:26;1.23;;;1.10;;
946;SDS011;460;48.734;9.152;2023-05-27T02:29:53;2.23;;;1.80;;
946;SDS011;460;48.734;9.152;2023-05-27T02:32:22;1.17;;;1.00;;
946;SDS011;460;48.734;9.152;2023-05-27T02:34:49;2.13;;;1.70;;
946;SDS011;460;48.734;9.152;2023-05-27T02:37:16;2.17;;;1.97;;
946;SDS011;460;48.734;9.152;2023-05-27T02:39:44;4.60;;;2.27;;
946;SDS011;460;48.734;9.152;2023-05-27T02:42:11;2.07;;;1.50;;
946;SDS011;460;48.734;9.152;2023-05-27T02:44:39;2.10;;;1.70;;
946;SDS011;460;48.734;9.152;2023-05-27T02:47:06;2.53;;;1.93;;
946;SDS011;460;48.734;9.152;2023-05-27T02:49:35;1.63;;;1.53;;
946;SDS011;460;48.734;9.152;2023-05-27T02:52:02;1.40;;;1.30;;
946;SDS011;460;48.734;9.152;2023-05-27T02:54:30;1.53;;;1.30;;
946;SDS011;460;48.734;9.152;2023-05-27T02:56:57;5.60;;;1.80;;
946;SDS011;460;48.734;9.152;2023-05-27T02:59:24;3.07;;;1.50;;
946;SDS011;460;48.734;9.152;2023-05-27T03:01:52;2.63;;;1.30;;
946;SDS011;460;48.734;9.152;2023-05-27T03:04:19;2.80;;;1.87;;
946;SDS011;460;48.734;9.152;2023-05-27T03:06:48;3.07;;;1.73;;
946;SDS011;460;48.734;9.152;2023-05-27T03:09:16;2.20;;;2.00;;
946;SDS011;460;48.734;9.152;2023-05-27T03:11:43;1.63;;;1.37;;
946;SDS011;460;48.734;9.152;2023-05-27T03:14:12;3.30;;;1.90;;
946;SDS011;460;48.734;9.152;2023-05-27T03:16:38;2.87;;;2.67;;
946;SDS011;460;48.734;9.152;2023-05-27T03:19:06;1.30;;;1.20;;
946;SDS011;460;48.734;9.152;2023-05-27T03:21:34;3.43;;;1.90;;
946;SDS011;460;48.734;9.152;2023-05-27T03:24:03;1.63;;;1.40;;
946;SDS011;460;48.734;9.152;2023-05-27T03:26:31;1.90;;;1.37;;
946;SDS011;460;48.734;9.152;2023-05-27T03:28:58;7.33;;;1.80;;
946;SDS011;460;48.734;9.152;2023-05-27T03:31:27;3.00;;;1.73;;
946;SDS011;460;48.734;9.152;2023-05-27T03:33:55;1.90;;;1.80;;
946;SDS011;460;48.734;9.152;2023-05-27T03:36:22;1.80;;;1.60;;
946;SDS011;460;48.734;9.152;2023-05-27T03:38:49;2.03;;;1.83;;
946;SDS011;460;48.734;9.152;2023-05-27T03:41:17;2.90;;;1.80;;
946;SDS011;460;48.734;9.152;2023-05-27T03:43:44;5.27;;;1.63;;
946;SDS011;460;48.734;9.152;2023-05-27T03:46:11;4.03;;;1.77;;
946;SDS011;460;48.734;9.152;2023-05-27T03:48:38;2.93;;;1.40;;
946;SDS011;460;48.734;9.152;2023-05-27T03:51:04;1.80;;;1.10;;
946;SDS011;460;48.734;9.152;2023-05-27T03:53:31;5.10;;;1.93;;
946;SDS011;460;48.734;9.152;2023-05-27T03:55:58;2.10;;;1.90;;
946;SDS011;460;48.734;9.152;2023-05-27T03:58:26;2.60;;;1.47;;
946;SDS011;460;48.734;9.152;2023-05-27T04:00:53;4.73;;;1.67;;
946;SDS011;460;48.734;9.152;2023-05-27T04:03:20;8.23;;;2.57;;
946;SDS011;460;48.734;9.152;2023-05-27T04:05:47;4.03;;;1.80;;
946;SDS011;460;48.734;9.152;2023-05-27T04:08:14;2.50;;;2.17;;
946;SDS011;460;48.734;9.152;2023-05-27T04:10:40;4.90;;;2.40;;
946;SDS011;460;48.734;9.152;2023-05-27T04:13:07;1.20;;;1.10;;
946;SDS011;460;48.734;9.152;2023-05-27T04:15:35;3.03;;;1.53;;
946;SDS011;460;48.734;9.152;2023-05-27T04:18:02;2.43;;;2.03;;
946;SDS011;460;48.734;9.152;2023-05-27T04:20:34;3.80;;;1.83;;
946;SDS011;460;48.734;9.152;2023-05-27T04:23:01;1.80;;;1.20;;
946;SDS011;460;48.734;9.152;2023-05-27T04:25:28;2.80;;;1.70;;
946;SDS011;460;48.734;9.152;2023-05-27T04:27:55;3.73;;;1.97;;
946;SDS011;460;48.734;9.152;2023-05-27T04:30:22;4.60;;;1.50;;
946;SDS011;460;48.734;9.152;2023-05-27T04:32:50;4.50;;;2.17;;
946;SDS011;460;48.734;9.152;2023-05-27T04:35:17;4.10;;;1.67;;
946;SDS011;460;48.734;9.152;2023-05-27T04:37:44;1.57;;;1.03;;
946;SDS011;460;48.734;9.152;2023-05-27T04:40:12;2.77;;;2.03;;
946;SDS011;460;48.734;9.152;2023-05-27T04:42:40;2.30;;;1.43;;
946;SDS011;460;48.734;9.152;2023-05-27T04:45:09;4.50;;;2.10;;
946;SDS011;460;48.734;9.152;2023-05-27T04:47:36;2.87;;;1.67;;
946;SDS011;460;48.734;9.152;2023-05-27T04:50:07;2.60;;;1.73;;
946;SDS011;460;48.734;9.152;2023-05-27T04:52:35;1.40;;;1.30;;
946;SDS011;460;48.734;9.152;2023-05-27T04:55:07;1.60;;;1.37;;
946;SDS011;460;48.734;9.152;2023-05-27T04:57:35;2.27;;;1.60;;
946;SDS011;460;48.734;9.152;2023-05-27T05:00:06;3.70;;;1.77;;
946;SDS011;460;48.734;9.152;2023-05-27T05:03:01;7.03;;;3.23;;
946;SDS011;460;48.734;9.152;2023-05-27T05:05:30;3.37;;;1.77;;
946;SDS011;460;48.734;9.152;2023-05-27T05:07:57;3.53;;;1.90;;
946;SDS011;460;48.734;9.152;2023-05-27T05:10:24;6.20;;;2.47;;
946;SDS011;460;48.734;9.152;2023-05-27T05:12:51;2.63;;;1.97;;
946;SDS011;460;48.734;9.152;2023-05-27T05:15:18;5.90;;;2.67;;
946;SDS011;460;48.734;9.152;2023-05-27T05:17:45;3.83;;;1.70;;
946;SDS011;460;48.734;9.152;2023-05-27T05:20:12;4.17;;;1.80;;
946;SDS011;460;48.734;9.152;2023-05-27T05:22:40;1.67;;;1.53;;
946;SDS011;460;48.734;9.152;2023-05-27T05:25:07;3.57;;;2.03;;
946;SDS011;460;48.734;9.152;2023-05-27T05:27:34;4.67;;;1.90;;
946;SDS011;460;48.734;9.152;2023-05-27T05:30:01;2.73;;;0.90;;
946;SDS011;460;48.734;9.152;2023-05-27T05:32:29;2.87;;;1.53;;
946;SDS011;460;48.734;9.152;2023-05-27T05:34:56;4.63;;;2.00;;
946;SDS011;460;48.734;9.152;2023-05-27T05:37:23;4.03;;;1.63;;
946;SDS011;460;48.734;9.152;2023-05-27T05:39:53;3.23;;;1.97;;
946;SDS011;460;48.734;9.152;2023-05-27T05:42:20;2.70;;;2.03;;
946;SDS011;460;48.734;9.152;2023-05-27T05:44:48;5.00;;;1.77;;
946;SDS011;460;48.734;9.152;2023-05-27T05:47:15;3.77;;;2.00;;
946;SDS011;460;48.734;9.152;2023-05-27T05:49:42;1.87;;;1.60;;
946;SDS011;460;48.734;9.152;2023-05-27T05:52:09;3.10;;;1.67;;
946;SDS011;460;48.734;9.152;2023-05-27T05:54:35;4.27;;;1.50;;
946;SDS011;460;48.734;9.152;2023-05-27T05:57:04;4.77;;;1.47;;
946;SDS011;460;48.734;9.152;2023-05-27T05:59:31;3.13;;;2.40;;
946;SDS011;460;48.734;9.152;2023-05-27T06:01:57;1.97;;;1.70;;
946;SDS011;460;48.734;9.152;2023-05-27T06:04:24;1.23;;;1.13;;
946;SDS011;460;48.734;9.152;2023-05-27T06:06:51;7.27;;;2.20;;
946;SDS011;460;48.734;9.152;2023-05-27T06:09:18;1.90;;;1.70;;
946;SDS011;460;48.734;9.152;2023-05-27T06:11:44;1.73;;;1.63;;
946;SDS011;460;48.734;9.152;2023-05-27T06:14:12;1.90;;;1.80;;
946;SDS011;460;48.734;9.152;2023-05-27T06:16:39;1.87;;;1.77;;
946;SDS011;460;48.734;9.152;2023-05-27T06:19:06;2.20;;;1.57;;
946;SDS011;460;48.734;9.152;2023-05-27T06:21:33;3.10;;;1.90;;
946;SDS011;460;48.734;9.152;2023-05-27T06:24:00;2.03;;;1.90;;
946;SDS011;460;48.734;9.152;2023-05-27T06:26:27;2.43;;;1.57;;
946;SDS011;460;48.734;9.152;2023-05-27T06:28:54;5.50;;;2.40;;
946;SDS011;460;48.734;9.152;2023-05-27T06:31:22;1.90;;;1.67;;
946;SDS011;460;48.734;9.152;2023-05-27T06:33:48;3.30;;;2.27;;
946;SDS011;460;48.734;9.152;2023-05-27T06:36:15;2.43;;;1.93;;
946;SDS011;460;48.734;9.152;2023-05-27T06:38:43;1.57;;;1.47;;
946;SDS011;460;48.734;9.152;2023-05-27T06:41:10;3.27;;;2.10;;
946;SDS011;460;48.734;9.152;2023-05-27T06:43:37;2.63;;;1.80;;
946;SDS011;460;48.734;9.152;2023-05-27T06:46:04;2.63;;;1.90;;
946;SDS011;460;48.734;9.152;2023-05-27T06:48:32;1.83;;;1.43;;
946;SDS011;460;48.734;9.152;2023-05-27T06:50:59;3.20;;;2.17;;
946;SDS011;460;48.734;9.152;2023-05-27T06:53:26;3.47;;;2.60;;
946;SDS011;460;48.734;9.152;2023-05-27T06:55:53;1.40;;;1.30;;
946;SDS011;460;48.734;9.152;2023-05-27T06:58:19;2.10;;;2.00;;
946;SDS011;460;48.734;9.152;2023-05-27T07:00:46;1.80;;;1.70;;
946;SDS011;460;48.734;9.152;2023-05-27T07:03:13;2.10;;;1.67;;
946;SDS011;460;48.734;9.152;2023-05-27T07:05:42;2.00;;;1.40;;
946;SDS011;460;48.734;9.152;2023-05-27T07:08:08;1.87;;;1.67;;
946;SDS011;460;48.734;9.152;2023-05-27T07:10:35;4.73;;;2.20;;
946;SDS011;460;48.734;9.152;2023-05-27T07:13:02;1.87;;;1.40;;
946;SDS011;460;48.734;9.152;2023-05-27T07:15:29;3.10;;;1.70;;
946;SDS011;460;48.734;9.152;2023-05-27T07:17:56;3.47;;;2.87;;
946;SDS011;460;48.734;9.152;2023-05-27T07:20:23;3.03;;;1.80;;
946;SDS011;460;48.734;9.152;2023-05-27T07:22:51;3.20;;;1.80;;
946;SDS011;460;48.734;9.152;2023-05-27T07:25:18;4.90;;;4.00;;
946;SDS011;460;48.734;9.152;2023-05-27T07:27:45;3.10;;;2.33;;
946;SDS011;460;48.734;9.152;2023-05-27T07:30:11;3.90;;;2.03;;
946;SDS011;460;48.734;9.152;2023-05-27T07:32:38;3.50;;;2.03;;
946;SDS011;460;48.734;9.152;2023-05-27T07:35:05;4.20;;;2.30;;
946;SDS011;460;48.734;9.152;2023-05-27T07:37:32;1.73;;;1.63;;
946;SDS011;460;48.734;9.152;2023-05-27T07:40:01;3.27;;;2.03;;
946;SDS011;460;48.734;9.152;2023-05-27T07:42:28;1.73;;;1.60;;
946;SDS011;460;48.734;9.152;2023-05-27T07:44:55;1.93;;;1.53;;
946;SDS011;460;48.734;9.152;2023-05-27T07:47:22;2.73;;;2.07;;
946;SDS011;460;48.734;9.152;2023-05-27T07:49:50;3.60;;;1.70;;
946;SDS011;460;48.734;9.152;2023-05-27T07:52:17;7.30;;;2.40;;
946;SDS011;460;48.734;9.152;2023-05-27T07:54:43;1.90;;;1.80;;
946;SDS011;460;48.734;9.152;2023-05-27T07:57:12;4.47;;;2.60;;
946;SDS011;460;48.734;9.152;2023-05-27T07:59:39;2.30;;;2.03;;
946;SDS011;460;48.734;9.152;2023-05-27T08:02:06;2.50;;;2.30;;
946;SDS011;460;48.734;9.152;2023-05-27T08:04:33;2.73;;;2.40;;
946;SDS011;460;48.734;9.152;2023-05-27T08:06:59;1.87;;;1.77;;
946;SDS011;460;48.734;9.152;2023-05-27T08:09:26;1.97;;;1.87;;
946;SDS011;460;48.734;9.152;2023-05-27T08:11:53;4.07;;;2.90;;
946;SDS011;460;48.734;9.152;2023-05-27T08:14:21;6.27;;;2.80;;
946;SDS011;460;48.734;9.152;2023-05-27T08:16:49;3.17;;;2.53;;
946;SDS011;460;48.734;9.152;2023-05-27T08:19:16;8.60;;;2.13;;
946;SDS011;460;48.734;9.152;2023-05-27T08:21:43;2.43;;;2.00;;
946;SDS011;460;48.734;9.152;2023-05-27T08:24:10;2.67;;;2.47;;
946;SDS011;460;48.734;9.152;2023-05-27T08:26:37;2.77;;;2.10;;
946;SDS011;460;48.734;9.152;2023-05-27T08:29:04;3.67;;;2.40;;
946;SDS011;460;48.734;9.152;2023-05-27T08:31:32;2.43;;;2.03;;
946;SDS011;460;48.734;9.152;2023-05-27T08:33:59;3.87;;;2.20;;
946;SDS011;460;48.734;9.152;2023-05-27T08:36:26;2.57;;;2.03;;
946;SDS011;460;48.734;9.152;2023-05-27T08:38:53;2.30;;;2.03;;
946;SDS011;460;48.734;9.152;2023-05-27T08:41:19;2.57;;;2.30;;
946;SDS011;460;48.734;9.152;2023-05-27T08:43:46;3.13;;;2.33;;
946;SDS011;460;48.734;9.152;2023-05-27T08:46:14;2.90;;;2.70;;
946;SDS011;460;48.734;9.152;2023-05-27T08:48:42;2.10;;;1.93;;
946;SDS011;460;48.734;9.152;2023-05-27T08:51:09;3.03;;;2.70;;
946;SDS011;460;48.734;9.152;2023-05-27T08:53:37;3.57;;;1.93;;
946;SDS011;460;48.734;9.152;2023-05-27T08:56:04;3.87;;;2.43;;
946;SDS011;460;48.734;9.152;2023-05-27T08:58:32;2.97;;;2.00;;
946;SDS011;460;48.734;9.152;2023-05-27T09:01:00;2.67;;;2.47;;
946;SDS011;460;48.734;9.152;2023-05-27T09:03:27;2.70;;;2.47;;
946;SDS011;460;48.734;9.152;2023-05-27T09:05:56;7.10;;;2.23;;
946;SDS011;460;48.734;9.152;2023-05-27T09:08:23;2.40;;;2.20;;
946;SDS011;460;48.734;9.152;2023-05-27T09:10:50;5.63;;;2.30;;
946;SDS011;460;48.734;9.152;2023-05-27T09:13:25;4.20;;;3.07;;
946;SDS011;460;48.734;9.152;2023-05-27T09:15:57;2.57;;;2.13;;
946;SDS011;460;48.734;9.152;2023-05-27T09:18:25;3.33;;;2.70;;
946;SDS011;460;48.734;9.152;2023-05-27T09:20:53;3.03;;;2.23;;
946;SDS011;460;48.734;9.152;2023-05-27T09:23:22;3.70;;;2.30;;
946;SDS011;460;48.734;9.152;2023-05-27T09:25:49;4.17;;;2.30;;
946;SDS011;460;48.734;9.152;2023-05-27T09:28:19;2.50;;;2.30;;
946;SDS011;460;48.734;9.152;2023-05-27T09:30:50;3.00;;;2.40;;
946;SDS011;460;48.734;9.152;2023-05-27T09:33:22;3.67;;;2.63;;
946;SDS011;460;48.734;9.152;2023-05-27T09:35:50;7.57;;;2.20;;
946;SDS011;460;48.734;9.152;2023-05-27T09:38:16;2.33;;;2.13;;
946;SDS011;460;48.734;9.152;2023-05-27T09:40:44;3.70;;;2.80;;
946;SDS011;460;48.734;9.152;2023-05-27T09:43:13;2.70;;;2.50;;
946;SDS011;460;48.734;9.152;2023-05-27T09:45:40;5.30;;;2.47;;
946;SDS011;460;48.734;9.152;2023-05-27T09:48:08;4.50;;;3.43;;
946;SDS011;460;48.734;9.152;2023-05-27T09:50:42;3.30;;;2.13;;
946;SDS011;460;48.734;9.152;2023-05-27T09:53:25;3.20;;;2.90;;
946;SDS011;460;48.734;9.152;2023-05-27T09:55:55;2.83;;;2.47;;
946;SDS011;460;48.734;9.152;2023-05-27T09:58:23;3.83;;;3.43;;
946;SDS011;460;48.734;9.152;2023-05-27T10:00:51;3.03;;;2.73;;
946;SDS011;460;48.734;9.152;2023-05-27T10:03:20;3.30;;;3.00;;
946;SDS011;460;48.734;9.152;2023-05-27T10:05:48;4.20;;;2.87;;
946;SDS011;460;48.734;9.152;2023-05-27T10:08:16;3.60;;;2.47;;
946;SDS011;460;48.734;9.152;2023-05-27T10:10:44;8.47;;;3.20;;
946;SDS011;460;48.734;9.152;2023-05-27T10:13:14;3.30;;;3.00;;
946;SDS011;460;48.734;9.152;2023-05-27T10:15:46;3.70;;;2.80;;
946;SDS011;460;48.734;9.152;2023-05-27T10:18:22;3.50;;;3.20;;
946;SDS011;460;48.734;9.152;2023-05-27T10:20:57;5.13;;;3.43;;
946;SDS011;460;48.734;9.152;2023-05-27T10:23:26;5.60;;;2.90;;
946;SDS011;460;48.734;9.152;2023-05-27T10:25:55;4.10;;;3.03;;
946;SDS011;460;48.734;9.152;2023-05-27T10:28:30;4.83;;;3.80;;
946;SDS011;460;48.734;9.152;2023-05-27T10:31:03;3.00;;;2.57;;
946;SDS011;460;48.734;9.152;2023-05-27T10:33:33;6.80;;;3.00;;
946;SDS011;460;48.734;9.152;2023-05-27T10:36:08;4.23;;;3.43;;
946;SDS011;460;48.734;9.152;2023-05-27T10:38:36;6.20;;;2.80;;
946;SDS011;460;48.734;9.152;2023-05-27T10:41:05;3.50;;;3.17;;
946;SDS011;460;48.734;9.152;2023-05-27T10:43:34;4.20;;;2.53;;
946;SDS011;460;48.734;9.152;2023-05-27T10:46:02;3.83;;;3.50;;
946;SDS011;460;48.734;9.152;2023-05-27T10:48:34;3.40;;;3.20;;
946;SDS011;460;48.734;9.152;2023-05-27T10:51:02;4.80;;;2.93;;
946;SDS011;460;48.734;9.152;2023-05-27T10:53:29;4.67;;;3.00;;
946;SDS011;460;48.734;9.152;2023-05-27T10:55:57;4.00;;;3.57;;
946;SDS011;460;48.734;9.152;2023-05-27T10:58:24;3.97;;;3.77;;
946;SDS011;460;48.734;9.152;2023-05-27T11:00:53;3.10;;;2.90;;
946;SDS011;460;48.734;9.152;2023-05-27T11:03:22;4.30;;;3.10;;
946;SDS011;460;48.734;9.152;2023-05-27T11:05:56;3.40;;;3.00;;
946;SDS011;460;48.734;9.152;2023-05-27T11:08:25;3.90;;;3.20;;
946;SDS011;460;48.734;9.152;2023-05-27T11:10:57;2.70;;;2.50;;
946;SDS011;460;48.734;9.152;2023-05-27T11:13:29;4.33;;;3.93;;
946;SDS011;460;48.734;9.152;2023-05-27T11:15:58;3.87;;;3.50;;
946;SDS011;460;48.734;9.152;2023-05-27T11:18:33;3.20;;;2.90;;
946;SDS011;460;48.734;9.152;2023-05-27T11:21:00;7.03;;;3.10;;
946;SDS011;460;48.734;9.152;2023-05-27T11:23:33;4.97;;;3.43;;
946;SDS011;460;48.734;9.152;2023-05-27T11:26:04;3.50;;;3.20;;
946;SDS011;460;48.734;9.152;2023-05-27T11:28:36;4.73;;;3.60;;
946;SDS011;460;48.734;9.152;2023-05-27T11:31:04;6.37;;;3.10;;
946;SDS011;460;48.734;9.152;2023-05-27T11:33:33;4.13;;;3.40;;
946;SDS011;460;48.734;9.152;2023-05-27T11:36:04;4.83;;;3.10;;
946;SDS011;460;48.734;9.152;2023-05-27T11:38:38;4.37;;;3.97;;
946;SDS011;460;48.734;9.152;2023-05-27T11:41:12;4.10;;;3.70;;
946;SDS011;460;48.734;9.152;2023-05-27T11:43:46;6.70;;;3.67;;
946;SDS011;460;48.734;9.152;2023-05-27T11:46:15;3.43;;;3.13;;
946;SDS011;460;48.734;9.152;2023-05-27T11:48:42;4.53;;;3.50;;
946;SDS011;460;48.734;9.152;2023-05-27T11:51:09;4.27;;;3.47;;
946;SDS011;460;48.734;9.152;2023-05-27T11:53:38;3.97;;;3.23;;
946;SDS011;460;48.734;9.152;2023-05-27T11:56:05;2.83;;;2.63;;
946;SDS011;460;48.734;9.152;2023-05-27T11:58:32;3.73;;;3.40;;
946;SDS011;460;48.734;9.152;2023-05-27T12:00:59;3.30;;;3.00;;
946;SDS011;460;48.734;9.152;2023-05-27T12:03:27;3.03;;;2.57;;
946;SDS011;460;48.734;9.152;2023-05-27T12:05:54;4.57;;;2.83;;
946;SDS011;460;48.734;9.152;2023-05-27T12:08:21;2.87;;;2.53;;
946;SDS011;460;48.734;9.152;2023-05-27T12:10:48;5.63;;;3.93;;
946;SDS011;460;48.734;9.152;2023-05-27T12:13:18;3.83;;;3.23;;
946;SDS011;460;48.734;9.152;2023-05-27T12:15:46;3.77;;;2.97;;
946;SDS011;460;48.734;9.152;2023-05-27T12:18:13;3.57;;;3.20;;
946;SDS011;460;48.734;9.152;2023-05-27T12:20:41;3.60;;;2.87;;
946;SDS011;460;48.734;9.152;2023-05-27T12:23:09;3.60;;;3.13;;
946;SDS011;460;48.734;9.152;2023-05-27T12:25:36;3.23;;;2.93;;
946;SDS011;460;48.734;9.152;2023-05-27T12:28:03;4.17;;;3.77;;
946;SDS011;460;48.734;9.152;2023-05-27T12:30:32;4.20;;;3.43;;
946;SDS011;460;48.734;9.152;2023-05-27T12:32:59;3.43;;;3.13;;
946;SDS011;460;48.734;9.152;2023-05-27T12:35:26;4.20;;;3.63;;
946;SDS011;460;48.734;9.152;2023-05-27T12:37:55;3.20;;;2.90;;
946;SDS011;460;48.734;9.152;2023-05-27T12:40:21;4.77;;;3.40;;
946;SDS011;460;48.734;9.152;2023-05-27T12:42:48;3.20;;;2.90;;
946;SDS011;460;48.734;9.152;2023-05-27T12:45:15;4.00;;;2.67;;
946;SDS011;460;48.734;9.152;2023-05-27T12:47:42;4.40;;;3.00;;
946;SDS011;460;48.734;9.152;2023-05-27T12:50:10;3.13;;;2.83;;
946;SDS011;460;48.734;9.152;2023-05-27T12:52:37;3.00;;;2.73;;
946;SDS011;460;48.734;9.152;2023-05-27T12:55:07;3.63;;;3.07;;
946;SDS011;460;48.734;9.152;2023-05-27T12:57:34;3.73;;;3.43;;
946;SDS011;460;48.734;9.152;2023-05-27T13:00:01;3.40;;;3.00;;
946;SDS011;460;48.734;9.152;2023-05-27T13:02:28;5.57;;;3.40;;
946;SDS011;460;48.734;9.152;2023-05-27T13:04:55;4.20;;;3.50;;
946;SDS011;460;48.734;9.152;2023-05-27T13:07:22;3.83;;;3.40;;
946;SDS011;460;48.734;9.152;2023-05-27T13:09:50;3.57;;;3.27;;
946;SDS011;460;48.734;9.152;2023-05-27T13:12:18;3.27;;;3.07;;
946;SDS011;460;48.734;9.152;2023-05-27T13:14:45;4.03;;;3.63;;
946;SDS011;460;48.734;9.152;2023-05-27T13:17:12;3.97;;;2.90;;
946;SDS011;460;48.734;9.152;2023-05-27T13:19:39;3.40;;;3.10;;
946;SDS011;460;48.734;9.152;2023-05-27T13:22:06;5.70;;;3.30;;
946;SDS011;460;48.734;9.152;2023-05-27T13:24:33;4.17;;;3.87;;
946;SDS011;460;48.734;9.152;2023-05-27T13:27:00;3.10;;;2.90;;
946;SDS011;460;48.734;9.152;2023-05-27T13:29:29;5.20;;;3.60;;
946;SDS011;460;48.734;9.152;2023-05-27T13:31:56;4.10;;;3.70;;
946;SDS011;460;48.734;9.152;2023-05-27T13:34:23;3.97;;;3.57;;
946;SDS011;460;48.734;9.152;2023-05-27T13:36:52;3.80;;;3.50;;
946;SDS011;460;48.734;9.152;2023-05-27T13:39:18;6.73;;;3.77;;
946;SDS011;460;48.734;9.152;2023-05-27T13:41:45;4.53;;;3.00;;
946;SDS011;460;48.734;9.152;2023-05-27T13:44:12;5.30;;;4.07;;
946;SDS011;460;48.734;9.152;2023-05-27T13:46:40;5.10;;;3.17;;
946;SDS011;460;48.734;9.152;2023-05-27T13:49:07;3.83;;;3.43;;
946;SDS011;460;48.734;9.152;2023-05-27T13:51:41;3.43;;;3.13;;
946;SDS011;460;48.734;9.152;2023-05-27T13:54:09;3.60;;;3.00;;
946;SDS011;460;48.734;9.152;2023-05-27T13:56:35;3.80;;;3.50;;
946;SDS011;460;48.734;9.152;2023-05-27T13:59:02;3.53;;;3.17;;
946;SDS011;460;48.734;9.152;2023-05-27T14:01:30;2.60;;;2.40;;
946;SDS011;460;48.734;9.152;2023-05-27T14:03:59;3.63;;;3.37;;
946;SDS011;460;48.734;9.152;2023-05-27T14:06:26;3.13;;;2.83;;
946;SDS011;460;48.734;9.152;2023-05-27T14:08:53;2.80;;;2.50;;
946;SDS011;460;48.734;9.152;2023-05-27T14:11:20;4.53;;;3.10;;
946;SDS011;460;48.734;9.152;2023-05-27T14:13:47;3.00;;;2.80;;
946;SDS011;460;48.734;9.152;2023-05-27T14:16:15;6.30;;;3.10;;
946;SDS011;460;48.734;9.152;2023-05-27T14:18:41;3.60;;;3.17;;
946;SDS011;460;48.734;9.152;2023-05-27T14:21:10;3.27;;;2.63;;
946;SDS011;460;48.734;9.152;2023-05-27T14:23:37;4.30;;;2.47;;
946;SDS011;460;48.734;9.152;2023-05-27T14:26:04;2.40;;;2.20;;
946;SDS011;460;48.734;9.152;2023-05-27T14:28:31;3.57;;;2.80;;
946;SDS011;460;48.734;9.152;2023-05-27T14:30:58;2.80;;;2.60;;
946;SDS011;460;48.734;9.152;2023-05-27T14:33:25;4.07;;;2.90;;
946;SDS011;460;48.734;9.152;2023-05-27T14:35:51;3.20;;;2.80;;
946;SDS011;460;48.734;9.152;2023-05-27T14:38:20;2.50;;;2.30;;
946;SDS011;460;48.734;9.152;2023-05-27T14:40:47;2.30;;;2.20;;
946;SDS011;460;48.734;9.152;2023-05-27T14:43:14;2.30;;;2.10;;
946;SDS011;460;48.734;9.152;2023-05-27T14:45:41;3.93;;;3.33;;
946;SDS011;460;48.734;9.152;2023-05-27T14:48:08;2.50;;;2.30;;
946;SDS011;460;48.734;9.152;2023-05-27T14:50:35;2.23;;;2.03;;
946;SDS011;460;48.734;9.152;2023-05-27T14:53:02;3.20;;;2.73;;
946;SDS011;460;48.734;9.152;2023-05-27T14:55:30;2.63;;;2.43;;
946;SDS011;460;48.734;9.152;2023-05-27T14:57:57;2.33;;;2.13;;
946;SDS011;460;48.734;9.152;2023-05-27T15:00:24;3.60;;;2.70;;
946;SDS011;460;48.734;9.152;2023-05-27T15:02:51;2.60;;;2.40;;
946;SDS011;460;48.734;9.152;2023-05-27T15:05:18;2.63;;;2.00;;
946;SDS011;460;48.734;9.152;2023-05-27T15:07:45;3.13;;;2.27;;
946;SDS011;460;48.734;9.152;2023-05-27T15:10:12;2.00;;;1.80;;
946;SDS011;460;48.734;9.152;2023-05-27T15:12:40;2.90;;;2.40;;
946;SDS011;460;48.734;9.152;2023-05-27T15:15:09;2.73;;;2.40;;
946;SDS011;460;48.734;9.152;2023-05-27T15:17:37;2.43;;;2.23;;
946;SDS011;460;48.734;9.152;2023-05-27T15:20:06;2.87;;;2.57;;
946;SDS011;460;48.734;9.152;2023-05-27T15:22:34;2.40;;;2.20;;
946;SDS011;460;48.734;9.152;2023-05-27T15:25:00;3.33;;;1.90;;
946;SDS011;460;48.734;9.152;2023-05-27T15:27:27;2.67;;;2.37;;
946;SDS011;460;48.734;9.152;2023-05-27T15:29:55;2.33;;;2.13;;
946;SDS011;460;48.734;9.152;2023-05-27T15:32:22;3.00;;;2.70;;
946;SDS011;460;48.734;9.152;2023-05-27T15:34:49;2.13;;;1.93;;
946;SDS011;460;48.734;9.152;2023-05-27T15:37:16;2.87;;;2.10;;
946;SDS011;460;48.734;9.152;2023-05-27T15:39:43;3.43;;;2.40;;
946;SDS011;460;48.734;9.152;2023-05-27T15:42:10;5.70;;;2.93;;
946;SDS011;460;48.734;9.152;2023-05-27T15:44:36;2.40;;;2.20;;
946;SDS011;460;48.734;9.152;2023-05-27T15:47:05;2.90;;;2.47;;
946;SDS011;460;48.734;9.152;2023-05-27T15:49:31;3.10;;;2.10;;